Risultati

Download risultati: TXT, XML IOF

Sprint Race Tour - 1^ prova
categoria: W35 - lunghezza: 3200mt - dislivello: 30mt
pos. cat. tempo Nome società p. LB p. SRT vel.
1W35 *00:18:18POLICE EugeniaA.S.D. UNIONE LOMBARDA20.000:05:1300:18:18|3200|30|18.30
2W35 *00:20:02BERTOLDI ClaudiaU.S. PRIMIERO A.S.D.17.000:05:4300:20:02|3200|30|20.03
3W35 *00:20:05CANAL MartaFRIULI MTB & ORIENTEERING...14.000:05:4400:20:05|3200|30|20.08
4W35 *00:20:10GIUGANINO BarbaraA.S.D. POLISPORTIVA BESAN...12.000:05:4500:20:10|3200|30|20.17
5W35 *00:20:19SEPIN ChiaraSSD Gaja - Sezione Orient...11.000:05:4800:20:19|3200|30|20.32
6W35 *00:21:12CASALINI MonicaIKP10.000:06:0300:21:12|3200|30|21.20
6W35 *00:21:12ULIANA FrancescaORIENTEERING TARZO A.S.D.10.000:06:0300:21:12|3200|30|21.20
8W35 *00:22:57CENTAZZO ClaudiaA.S.D. SEMIPERDO ORIENTEE...8.000:06:3300:22:57|3200|30|22.95
9W35 *00:23:30ANEDDA FedericaA.S.D. ORIENTEERING G. GA...7.000:06:4200:23:30|3200|30|23.50
10W35 *00:23:40SANTAROSSA SoniaA.S.D. SEMIPERDO ORIENTEE...6.000:06:4500:23:40|3200|30|23.67
11W35 *00:24:12BORTOLINI MonicaORIENTEERING TARZO A.S.D.5.000:06:5400:24:12|3200|30|24.20
12W35 *00:24:33GAION SaraORIENTEERING TRIESTE - A....4.000:07:0000:24:33|3200|30|24.55
13W35 *00:26:30WEITLANER SimoneHAUNOLD ORIENTEERING TEAM...3.000:07:3400:26:30|3200|30|26.50
14W35 *00:26:42PALAMARA StefaniaTUMIZA ORIENTEERING CHIAR...2.000:07:3700:26:42|3200|30|26.70
15W35 *00:29:31PRIMERANO Rianò CarmelaORIENTEERING DOLOMITI ASD1.000:08:2600:29:31|3200|30|29.52
16W35 *00:29:53FAIFER CristinaPANDA ORIENTEERING VALS. ...1.000:08:3200:29:53|3200|30|29.88
NPW35 *00:00:00BERTOLDI HelgaORIENTEERING MEZZOCORONA ...0:00:0000:00:00|3200|30|0.00
NPW35 *00:00:00VEZZANI StefaniaOrientamente A.S.D.0:00:0000:00:00|3200|30|0.00
PMW35 *01:30:17AIMETTO DonatellaORICUNEO0:25:4701:30:17|3200|30|90.28
PMW35 *00:18:29FERRARINI LuciaA.S.D. NIRVANA VERDE0:05:1600:18:29|3200|30|18.48
Risultati per pagina:

PARTNER UFFICIALI FISO